sensor_id;sensor_type;location;lat;lon;timestamp;temperature;humidity
76967;DHT22;65904;52.278;20.972;2023-03-19T00:01:51;6.80;84.00
76967;DHT22;65904;52.278;20.972;2023-03-19T00:04:38;6.80;84.00
76967;DHT22;65904;52.278;20.972;2023-03-19T00:07:25;6.80;84.30
76967;DHT22;65904;52.278;20.972;2023-03-19T00:10:11;6.80;84.60
76967;DHT22;65904;52.278;20.972;2023-03-19T00:12:57;6.70;85.00
76967;DHT22;65904;52.278;20.972;2023-03-19T00:15:44;6.70;85.30
76967;DHT22;65904;52.278;20.972;2023-03-19T00:18:30;6.70;85.50
76967;DHT22;65904;52.278;20.972;2023-03-19T00:21:16;6.70;85.90
76967;DHT22;65904;52.278;20.972;2023-03-19T00:24:04;6.60;85.90
76967;DHT22;65904;52.278;20.972;2023-03-19T00:26:51;6.60;85.90
76967;DHT22;65904;52.278;20.972;2023-03-19T00:29:37;6.50;86.00
76967;DHT22;65904;52.278;20.972;2023-03-19T00:32:24;6.50;86.60
76967;DHT22;65904;52.278;20.972;2023-03-19T00:35:10;6.40;86.50
76967;DHT22;65904;52.278;20.972;2023-03-19T00:37:57;6.30;86.60
76967;DHT22;65904;52.278;20.972;2023-03-19T00:40:46;6.30;87.50
76967;DHT22;65904;52.278;20.972;2023-03-19T00:43:32;6.20;87.60
76967;DHT22;65904;52.278;20.972;2023-03-19T00:46:18;6.10;87.80
76967;DHT22;65904;52.278;20.972;2023-03-19T00:49:05;6.00;88.00
76967;DHT22;65904;52.278;20.972;2023-03-19T00:51:51;6.00;88.40
76967;DHT22;65904;52.278;20.972;2023-03-19T00:54:37;6.00;88.70
76967;DHT22;65904;52.278;20.972;2023-03-19T00:57:25;6.00;89.70
76967;DHT22;65904;52.278;20.972;2023-03-19T01:00:12;5.90;89.00
76967;DHT22;65904;52.278;20.972;2023-03-19T01:02:59;5.90;89.40
76967;DHT22;65904;52.278;20.972;2023-03-19T01:05:46;5.80;89.30
76967;DHT22;65904;52.278;20.972;2023-03-19T01:08:32;5.80;89.50
76967;DHT22;65904;52.278;20.972;2023-03-19T01:11:19;5.80;89.70
76967;DHT22;65904;52.278;20.972;2023-03-19T01:14:07;5.80;89.60
76967;DHT22;65904;52.278;20.972;2023-03-19T01:16:53;5.80;89.90
76967;DHT22;65904;52.278;20.972;2023-03-19T01:19:39;5.80;89.80
76967;DHT22;65904;52.278;20.972;2023-03-19T01:22:25;5.80;89.90
76967;DHT22;65904;52.278;20.972;2023-03-19T01:25:15;5.80;89.60
76967;DHT22;65904;52.278;20.972;2023-03-19T01:28:12;5.80;89.20
76967;DHT22;65904;52.278;20.972;2023-03-19T01:31:04;5.80;89.00
76967;DHT22;65904;52.278;20.972;2023-03-19T01:34:29;5.90;89.10
76967;DHT22;65904;52.278;20.972;2023-03-19T01:37:23;5.90;88.80
76967;DHT22;65904;52.278;20.972;2023-03-19T01:40:11;6.00;88.60
76967;DHT22;65904;52.278;20.972;2023-03-19T01:43:12;6.00;87.70
76967;DHT22;65904;52.278;20.972;2023-03-19T01:46:18;6.10;87.60
76967;DHT22;65904;52.278;20.972;2023-03-19T01:49:07;6.10;87.80
76967;DHT22;65904;52.278;20.972;2023-03-19T01:51:54;6.10;87.70
76967;DHT22;65904;52.278;20.972;2023-03-19T01:54:56;6.10;87.50
76967;DHT22;65904;52.278;20.972;2023-03-19T01:58:02;6.20;86.40
76967;DHT22;65904;52.278;20.972;2023-03-19T02:01:09;6.30;86.50
76967;DHT22;65904;52.278;20.972;2023-03-19T02:04:02;6.30;86.40
76967;DHT22;65904;52.278;20.972;2023-03-19T02:06:54;6.40;85.20
76967;DHT22;65904;52.278;20.972;2023-03-19T02:09:40;6.40;85.90
76967;DHT22;65904;52.278;20.972;2023-03-19T02:12:27;6.30;86.00
76967;DHT22;65904;52.278;20.972;2023-03-19T02:15:14;6.30;85.80
76967;DHT22;65904;52.278;20.972;2023-03-19T02:18:01;6.30;86.40
76967;DHT22;65904;52.278;20.972;2023-03-19T02:20:55;6.30;86.50
76967;DHT22;65904;52.278;20.972;2023-03-19T02:23:48;6.20;87.60
76967;DHT22;65904;52.278;20.972;2023-03-19T02:26:46;6.10;88.30
76967;DHT22;65904;52.278;20.972;2023-03-19T02:29:32;6.00;89.10
76967;DHT22;65904;52.278;20.972;2023-03-19T02:32:19;5.90;90.10
76967;DHT22;65904;52.278;20.972;2023-03-19T02:35:07;5.80;90.40
76967;DHT22;65904;52.278;20.972;2023-03-19T02:37:54;5.80;90.80
76967;DHT22;65904;52.278;20.972;2023-03-19T02:40:44;5.70;90.90
76967;DHT22;65904;52.278;20.972;2023-03-19T02:43:36;5.60;91.10
76967;DHT22;65904;52.278;20.972;2023-03-19T02:46:22;5.60;91.40
76967;DHT22;65904;52.278;20.972;2023-03-19T02:49:08;5.50;91.50
76967;DHT22;65904;52.278;20.972;2023-03-19T02:51:56;5.50;91.50
76967;DHT22;65904;52.278;20.972;2023-03-19T02:54:42;5.40;91.60
76967;DHT22;65904;52.278;20.972;2023-03-19T02:57:28;5.40;91.80
76967;DHT22;65904;52.278;20.972;2023-03-19T03:00:16;5.40;91.90
76967;DHT22;65904;52.278;20.972;2023-03-19T03:03:05;5.30;92.00
76967;DHT22;65904;52.278;20.972;2023-03-19T03:05:52;5.20;92.10
76967;DHT22;65904;52.278;20.972;2023-03-19T03:08:38;5.20;92.30
76967;DHT22;65904;52.278;20.972;2023-03-19T03:11:24;5.10;92.40
76967;DHT22;65904;52.278;20.972;2023-03-19T03:14:11;5.10;92.40
76967;DHT22;65904;52.278;20.972;2023-03-19T03:17:00;5.00;92.60
76967;DHT22;65904;52.278;20.972;2023-03-19T03:19:47;5.10;92.60
76967;DHT22;65904;52.278;20.972;2023-03-19T03:22:34;5.00;92.60
76967;DHT22;65904;52.278;20.972;2023-03-19T03:25:20;5.10;92.60
76967;DHT22;65904;52.278;20.972;2023-03-19T03:28:06;5.10;92.70
76967;DHT22;65904;52.278;20.972;2023-03-19T03:30:57;5.10;92.70
76967;DHT22;65904;52.278;20.972;2023-03-19T03:33:45;5.10;92.60
76967;DHT22;65904;52.278;20.972;2023-03-19T03:36:31;5.10;92.70
76967;DHT22;65904;52.278;20.972;2023-03-19T03:39:17;5.10;92.60
76967;DHT22;65904;52.278;20.972;2023-03-19T03:42:03;5.10;92.60
76967;DHT22;65904;52.278;20.972;2023-03-19T03:44:51;5.10;93.00
76967;DHT22;65904;52.278;20.972;2023-03-19T03:47:37;5.00;92.70
76967;DHT22;65904;52.278;20.972;2023-03-19T03:50:26;5.00;92.70
76967;DHT22;65904;52.278;20.972;2023-03-19T03:53:15;4.90;92.80
76967;DHT22;65904;52.278;20.972;2023-03-19T03:56:01;4.90;92.90
76967;DHT22;65904;52.278;20.972;2023-03-19T03:58:48;4.90;93.00
76967;DHT22;65904;52.278;20.972;2023-03-19T04:01:35;4.80;92.90
76967;DHT22;65904;52.278;20.972;2023-03-19T04:04:21;4.80;93.00
76967;DHT22;65904;52.278;20.972;2023-03-19T04:07:09;4.80;93.10
76967;DHT22;65904;52.278;20.972;2023-03-19T04:10:02;4.80;93.00
76967;DHT22;65904;52.278;20.972;2023-03-19T04:12:49;4.70;93.20
76967;DHT22;65904;52.278;20.972;2023-03-19T04:15:36;4.70;93.20
76967;DHT22;65904;52.278;20.972;2023-03-19T04:18:24;4.70;93.20
76967;DHT22;65904;52.278;20.972;2023-03-19T04:21:09;4.60;93.20
76967;DHT22;65904;52.278;20.972;2023-03-19T04:23:58;4.50;93.50
76967;DHT22;65904;52.278;20.972;2023-03-19T04:26:45;4.50;93.70
76967;DHT22;65904;52.278;20.972;2023-03-19T04:29:33;4.40;93.50
76967;DHT22;65904;52.278;20.972;2023-03-19T04:32:20;4.40;93.70
76967;DHT22;65904;52.278;20.972;2023-03-19T04:35:07;4.40;93.80
76967;DHT22;65904;52.278;20.972;2023-03-19T04:37:53;4.40;93.80
76967;DHT22;65904;52.278;20.972;2023-03-19T04:40:41;4.40;93.90
76967;DHT22;65904;52.278;20.972;2023-03-19T04:43:28;4.30;94.00
76967;DHT22;65904;52.278;20.972;2023-03-19T04:46:15;4.20;94.20
76967;DHT22;65904;52.278;20.972;2023-03-19T04:49:01;4.20;94.40
76967;DHT22;65904;52.278;20.972;2023-03-19T04:51:48;4.20;94.60
76967;DHT22;65904;52.278;20.972;2023-03-19T04:54:34;4.20;94.60
76967;DHT22;65904;52.278;20.972;2023-03-19T04:57:22;4.10;94.60
76967;DHT22;65904;52.278;20.972;2023-03-19T05:00:12;4.10;94.80
76967;DHT22;65904;52.278;20.972;2023-03-19T05:03:01;4.10;94.70
76967;DHT22;65904;52.278;20.972;2023-03-19T05:05:49;4.10;94.80
76967;DHT22;65904;52.278;20.972;2023-03-19T05:08:35;4.10;94.70
76967;DHT22;65904;52.278;20.972;2023-03-19T05:11:21;4.10;94.80
76967;DHT22;65904;52.278;20.972;2023-03-19T05:14:21;4.00;94.80
76967;DHT22;65904;52.278;20.972;2023-03-19T05:17:26;4.00;94.90
76967;DHT22;65904;52.278;20.972;2023-03-19T05:20:28;3.90;94.90
76967;DHT22;65904;52.278;20.972;2023-03-19T05:23:21;4.00;94.80
76967;DHT22;65904;52.278;20.972;2023-03-19T05:26:28;4.00;94.50
76967;DHT22;65904;52.278;20.972;2023-03-19T05:29:35;4.10;93.90
76967;DHT22;65904;52.278;20.972;2023-03-19T05:32:41;4.30;93.70
76967;DHT22;65904;52.278;20.972;2023-03-19T05:35:36;4.50;92.90
76967;DHT22;65904;52.278;20.972;2023-03-19T05:38:27;4.80;92.10
76967;DHT22;65904;52.278;20.972;2023-03-19T05:41:21;5.30;91.00
76967;DHT22;65904;52.278;20.972;2023-03-19T05:44:15;5.50;90.10
76967;DHT22;65904;52.278;20.972;2023-03-19T05:47:20;5.80;89.50
76967;DHT22;65904;52.278;20.972;2023-03-19T05:50:11;6.00;88.50
76967;DHT22;65904;52.278;20.972;2023-03-19T05:53:02;6.10;88.10
76967;DHT22;65904;52.278;20.972;2023-03-19T05:55:50;6.20;87.50
76967;DHT22;65904;52.278;20.972;2023-03-19T05:58:36;6.40;85.90
76967;DHT22;65904;52.278;20.972;2023-03-19T06:01:22;6.50;85.30
76967;DHT22;65904;52.278;20.972;2023-03-19T06:04:10;6.60;85.20
76967;DHT22;65904;52.278;20.972;2023-03-19T06:06:57;6.60;85.50
76967;DHT22;65904;52.278;20.972;2023-03-19T06:09:43;6.70;85.10
76967;DHT22;65904;52.278;20.972;2023-03-19T06:12:30;6.70;85.10
76967;DHT22;65904;52.278;20.972;2023-03-19T06:15:35;6.90;84.30
76967;DHT22;65904;52.278;20.972;2023-03-19T06:18:21;7.00;84.20
76967;DHT22;65904;52.278;20.972;2023-03-19T06:21:09;7.00;83.70
76967;DHT22;65904;52.278;20.972;2023-03-19T06:23:56;7.00;83.60
76967;DHT22;65904;52.278;20.972;2023-03-19T06:26:48;7.10;83.10
76967;DHT22;65904;52.278;20.972;2023-03-19T06:29:34;7.10;83.80
76967;DHT22;65904;52.278;20.972;2023-03-19T06:32:33;7.30;82.80
76967;DHT22;65904;52.278;20.972;2023-03-19T06:35:28;7.40;82.20
76967;DHT22;65904;52.278;20.972;2023-03-19T06:38:16;7.50;81.10
76967;DHT22;65904;52.278;20.972;2023-03-19T06:41:02;7.60;81.20
76967;DHT22;65904;52.278;20.972;2023-03-19T06:43:49;7.70;80.30
76967;DHT22;65904;52.278;20.972;2023-03-19T06:46:35;7.90;80.60
76967;DHT22;65904;52.278;20.972;2023-03-19T06:49:21;8.00;80.70
76967;DHT22;65904;52.278;20.972;2023-03-19T06:52:08;8.20;79.40
76967;DHT22;65904;52.278;20.972;2023-03-19T06:54:56;8.40;78.90
76967;DHT22;65904;52.278;20.972;2023-03-19T06:57:42;8.60;77.90
76967;DHT22;65904;52.278;20.972;2023-03-19T07:00:28;8.70;77.00
76967;DHT22;65904;52.278;20.972;2023-03-19T07:03:14;8.80;77.00
76967;DHT22;65904;52.278;20.972;2023-03-19T07:06:00;8.90;76.50
76967;DHT22;65904;52.278;20.972;2023-03-19T07:08:46;8.90;75.60
76967;DHT22;65904;52.278;20.972;2023-03-19T07:11:34;8.80;76.60
76967;DHT22;65904;52.278;20.972;2023-03-19T07:14:20;8.80;75.90
76967;DHT22;65904;52.278;20.972;2023-03-19T07:17:07;8.80;76.50
76967;DHT22;65904;52.278;20.972;2023-03-19T07:19:53;8.70;76.50
76967;DHT22;65904;52.278;20.972;2023-03-19T07:22:40;8.70;76.90
76967;DHT22;65904;52.278;20.972;2023-03-19T07:25:26;8.70;77.70
76967;DHT22;65904;52.278;20.972;2023-03-19T07:28:13;8.80;78.30
76967;DHT22;65904;52.278;20.972;2023-03-19T07:31:00;8.90;77.10
76967;DHT22;65904;52.278;20.972;2023-03-19T07:33:46;9.10;77.60
76967;DHT22;65904;52.278;20.972;2023-03-19T07:36:32;9.10;76.80
76967;DHT22;65904;52.278;20.972;2023-03-19T07:39:18;9.20;76.20
76967;DHT22;65904;52.278;20.972;2023-03-19T07:42:05;9.40;76.40
76967;DHT22;65904;52.278;20.972;2023-03-19T07:44:53;9.50;75.60
76967;DHT22;65904;52.278;20.972;2023-03-19T07:47:39;9.50;75.90
76967;DHT22;65904;52.278;20.972;2023-03-19T07:50:25;9.70;74.80
76967;DHT22;65904;52.278;20.972;2023-03-19T07:53:11;9.90;74.10
76967;DHT22;65904;52.278;20.972;2023-03-19T07:55:58;10.10;72.60
76967;DHT22;65904;52.278;20.972;2023-03-19T07:58:44;10.20;72.10
76967;DHT22;65904;52.278;20.972;2023-03-19T08:01:32;10.30;71.70
76967;DHT22;65904;52.278;20.972;2023-03-19T08:04:18;10.50;71.30
76967;DHT22;65904;52.278;20.972;2023-03-19T08:07:05;10.70;71.30
76967;DHT22;65904;52.278;20.972;2023-03-19T08:09:54;10.90;70.20
76967;DHT22;65904;52.278;20.972;2023-03-19T08:12:41;11.00;69.00
76967;DHT22;65904;52.278;20.972;2023-03-19T08:15:27;11.10;68.50
76967;DHT22;65904;52.278;20.972;2023-03-19T08:18:15;11.30;68.60
76967;DHT22;65904;52.278;20.972;2023-03-19T08:21:02;11.70;66.40
76967;DHT22;65904;52.278;20.972;2023-03-19T08:23:48;12.00;64.00
76967;DHT22;65904;52.278;20.972;2023-03-19T08:26:35;12.30;62.50
76967;DHT22;65904;52.278;20.972;2023-03-19T08:29:21;12.50;63.10
76967;DHT22;65904;52.278;20.972;2023-03-19T08:32:10;12.80;59.60
76967;DHT22;65904;52.278;20.972;2023-03-19T08:34:57;12.80;59.40
76967;DHT22;65904;52.278;20.972;2023-03-19T08:37:44;13.10;59.60
76967;DHT22;65904;52.278;20.972;2023-03-19T08:40:30;13.00;58.20
76967;DHT22;65904;52.278;20.972;2023-03-19T08:43:16;13.10;58.60
76967;DHT22;65904;52.278;20.972;2023-03-19T08:46:03;13.50;57.80
76967;DHT22;65904;52.278;20.972;2023-03-19T08:48:49;14.20;56.50
76967;DHT22;65904;52.278;20.972;2023-03-19T08:51:37;15.10;54.10
76967;DHT22;65904;52.278;20.972;2023-03-19T08:54:24;15.60;51.50
76967;DHT22;65904;52.278;20.972;2023-03-19T08:57:10;15.80;49.10
76967;DHT22;65904;52.278;20.972;2023-03-19T08:59:57;15.70;48.50
76967;DHT22;65904;52.278;20.972;2023-03-19T09:02:42;16.40;47.50
76967;DHT22;65904;52.278;20.972;2023-03-19T09:05:29;16.90;46.70
76967;DHT22;65904;52.278;20.972;2023-03-19T09:08:16;17.50;45.20
76967;DHT22;65904;52.278;20.972;2023-03-19T09:11:04;17.20;44.70
76967;DHT22;65904;52.278;20.972;2023-03-19T09:13:50;17.30;45.10
76967;DHT22;65904;52.278;20.972;2023-03-19T09:16:37;17.30;45.00
76967;DHT22;65904;52.278;20.972;2023-03-19T09:19:23;17.50;44.50
76967;DHT22;65904;52.278;20.972;2023-03-19T09:22:10;17.90;43.50
76967;DHT22;65904;52.278;20.972;2023-03-19T09:24:57;18.30;43.10
76967;DHT22;65904;52.278;20.972;2023-03-19T09:27:44;19.40;41.80
76967;DHT22;65904;52.278;20.972;2023-03-19T09:30:30;20.30;39.90
76967;DHT22;65904;52.278;20.972;2023-03-19T09:33:17;20.70;38.20
76967;DHT22;65904;52.278;20.972;2023-03-19T09:36:04;20.80;37.30
76967;DHT22;65904;52.278;20.972;2023-03-19T09:38:51;21.20;36.80
76967;DHT22;65904;52.278;20.972;2023-03-19T09:41:48;20.60;36.70
76967;DHT22;65904;52.278;20.972;2023-03-19T09:44:44;21.40;35.80
76967;DHT22;65904;52.278;20.972;2023-03-19T09:47:32;22.50;34.70
76967;DHT22;65904;52.278;20.972;2023-03-19T09:50:22;23.30;34.00
76967;DHT22;65904;52.278;20.972;2023-03-19T09:53:13;22.40;33.80
76967;DHT22;65904;52.278;20.972;2023-03-19T09:56:06;21.30;34.10
76967;DHT22;65904;52.278;20.972;2023-03-19T09:58:54;20.70;35.40
76967;DHT22;65904;52.278;20.972;2023-03-19T10:01:44;20.90;35.30
76967;DHT22;65904;52.278;20.972;2023-03-19T10:04:39;21.70;35.50
76967;DHT22;65904;52.278;20.972;2023-03-19T10:07:37;22.40;33.80
76967;DHT22;65904;52.278;20.972;2023-03-19T10:10:36;22.90;33.40
76967;DHT22;65904;52.278;20.972;2023-03-19T10:13:35;23.80;32.60
76967;DHT22;65904;52.278;20.972;2023-03-19T10:16:26;24.60;31.60
76967;DHT22;65904;52.278;20.972;2023-03-19T10:19:16;24.40;31.00
76967;DHT22;65904;52.278;20.972;2023-03-19T10:22:06;23.80;31.10
76967;DHT22;65904;52.278;20.972;2023-03-19T10:24:54;23.30;31.50
76967;DHT22;65904;52.278;20.972;2023-03-19T10:27:43;21.60;33.40
76967;DHT22;65904;52.278;20.972;2023-03-19T10:30:32;21.10;34.70
76967;DHT22;65904;52.278;20.972;2023-03-19T10:33:22;21.20;34.40
76967;DHT22;65904;52.278;20.972;2023-03-19T10:36:11;22.30;34.00
76967;DHT22;65904;52.278;20.972;2023-03-19T10:38:58;22.20;33.60
76967;DHT22;65904;52.278;20.972;2023-03-19T10:41:49;22.30;33.40
76967;DHT22;65904;52.278;20.972;2023-03-19T10:44:44;22.10;33.50
76967;DHT22;65904;52.278;20.972;2023-03-19T10:47:37;21.70;33.70
76967;DHT22;65904;52.278;20.972;2023-03-19T10:50:30;20.80;35.10
76967;DHT22;65904;52.278;20.972;2023-03-19T10:56:20;20.70;36.30
76967;DHT22;65904;52.278;20.972;2023-03-19T10:59:22;22.80;34.50
76967;DHT22;65904;52.278;20.972;2023-03-19T11:02:16;24.70;32.30
76967;DHT22;65904;52.278;20.972;2023-03-19T11:05:22;27.30;29.80
76967;DHT22;65904;52.278;20.972;2023-03-19T11:08:18;29.00;28.00
76967;DHT22;65904;52.278;20.972;2023-03-19T11:11:06;26.90;27.90
76967;DHT22;65904;52.278;20.972;2023-03-19T11:13:52;26.40;28.50
76967;DHT22;65904;52.278;20.972;2023-03-19T11:16:47;25.50;29.40
76967;DHT22;65904;52.278;20.972;2023-03-19T11:19:39;26.40;29.50
76967;DHT22;65904;52.278;20.972;2023-03-19T11:22:28;26.40;29.00
76967;DHT22;65904;52.278;20.972;2023-03-19T11:25:22;26.60;29.20
76967;DHT22;65904;52.278;20.972;2023-03-19T11:28:12;26.20;29.10
76967;DHT22;65904;52.278;20.972;2023-03-19T11:31:04;27.10;28.80
76967;DHT22;65904;52.278;20.972;2023-03-19T11:34:12;28.00;28.80
76967;DHT22;65904;52.278;20.972;2023-03-19T11:37:05;28.50;27.80
76967;DHT22;65904;52.278;20.972;2023-03-19T11:40:00;27.90;28.20
76967;DHT22;65904;52.278;20.972;2023-03-19T11:43:04;26.40;28.50
76967;DHT22;65904;52.278;20.972;2023-03-19T11:46:00;24.40;30.00
76967;DHT22;65904;52.278;20.972;2023-03-19T11:52:24;25.00;31.00
76967;DHT22;65904;52.278;20.972;2023-03-19T11:55:19;25.20;30.00
76967;DHT22;65904;52.278;20.972;2023-03-19T11:58:49;25.20;30.20
76967;DHT22;65904;52.278;20.972;2023-03-19T12:05:17;26.60;30.30
76967;DHT22;65904;52.278;20.972;2023-03-19T12:08:18;27.20;29.10
76967;DHT22;65904;52.278;20.972;2023-03-19T12:11:16;27.10;28.70
76967;DHT22;65904;52.278;20.972;2023-03-19T12:14:19;26.70;28.70
76967;DHT22;65904;52.278;20.972;2023-03-19T12:17:21;26.50;28.90
76967;DHT22;65904;52.278;20.972;2023-03-19T12:20:16;25.30;29.60
76967;DHT22;65904;52.278;20.972;2023-03-19T12:23:10;25.50;30.10
76967;DHT22;65904;52.278;20.972;2023-03-19T12:26:01;25.10;30.70
76967;DHT22;65904;52.278;20.972;2023-03-19T12:28:53;23.70;31.00
76967;DHT22;65904;52.278;20.972;2023-03-19T12:31:51;23.00;32.40
76967;DHT22;65904;52.278;20.972;2023-03-19T12:34:45;24.10;32.40
76967;DHT22;65904;52.278;20.972;2023-03-19T12:37:36;24.20;31.10
76967;DHT22;65904;52.278;20.972;2023-03-19T12:40:26;23.60;31.40
76967;DHT22;65904;52.278;20.972;2023-03-19T12:43:17;24.00;31.00
76967;DHT22;65904;52.278;20.972;2023-03-19T12:46:06;23.40;32.00
76967;DHT22;65904;52.278;20.972;2023-03-19T12:49:01;23.40;32.20
76967;DHT22;65904;52.278;20.972;2023-03-19T12:51:50;21.60;33.10
76967;DHT22;65904;52.278;20.972;2023-03-19T12:54:42;22.00;34.00
76967;DHT22;65904;52.278;20.972;2023-03-19T12:57:33;22.40;33.70
76967;DHT22;65904;52.278;20.972;2023-03-19T13:00:27;21.10;32.20
76967;DHT22;65904;52.278;20.972;2023-03-19T13:03:18;20.60;34.10
76967;DHT22;65904;52.278;20.972;2023-03-19T13:06:11;21.60;34.70
76967;DHT22;65904;52.278;20.972;2023-03-19T13:09:04;23.00;32.50
76967;DHT22;65904;52.278;20.972;2023-03-19T13:11:56;24.30;31.10
76967;DHT22;65904;52.278;20.972;2023-03-19T13:14:48;23.90;30.60
76967;DHT22;65904;52.278;20.972;2023-03-19T13:17:44;23.60;31.40
76967;DHT22;65904;52.278;20.972;2023-03-19T13:20:48;22.50;32.30
76967;DHT22;65904;52.278;20.972;2023-03-19T13:23:37;23.50;32.80
76967;DHT22;65904;52.278;20.972;2023-03-19T13:26:24;24.50;31.80
76967;DHT22;65904;52.278;20.972;2023-03-19T13:29:17;25.60;30.80
76967;DHT22;65904;52.278;20.972;2023-03-19T13:32:05;24.80;30.00
76967;DHT22;65904;52.278;20.972;2023-03-19T13:35:08;25.60;30.40
76967;DHT22;65904;52.278;20.972;2023-03-19T13:38:00;26.40;29.10
76967;DHT22;65904;52.278;20.972;2023-03-19T13:40:50;24.80;30.50
76967;DHT22;65904;52.278;20.972;2023-03-19T13:43:41;24.30;30.80
76967;DHT22;65904;52.278;20.972;2023-03-19T13:46:39;23.10;31.70
76967;DHT22;65904;52.278;20.972;2023-03-19T13:49:28;22.00;33.40
76967;DHT22;65904;52.278;20.972;2023-03-19T13:52:51;20.50;35.50
76967;DHT22;65904;52.278;20.972;2023-03-19T13:55:48;20.30;35.70
76967;DHT22;65904;52.278;20.972;2023-03-19T13:58:47;20.40;35.80
76967;DHT22;65904;52.278;20.972;2023-03-19T14:01:38;20.00;36.70
76967;DHT22;65904;52.278;20.972;2023-03-19T14:04:25;19.10;37.70
76967;DHT22;65904;52.278;20.972;2023-03-19T14:07:17;18.90;38.30
76967;DHT22;65904;52.278;20.972;2023-03-19T14:10:07;18.40;38.50
76967;DHT22;65904;52.278;20.972;2023-03-19T14:13:05;18.60;39.20
76967;DHT22;65904;52.278;20.972;2023-03-19T14:15:52;18.70;39.10
76967;DHT22;65904;52.278;20.972;2023-03-19T14:18:41;19.00;38.70
76967;DHT22;65904;52.278;20.972;2023-03-19T14:21:33;19.10;38.20
76967;DHT22;65904;52.278;20.972;2023-03-19T14:24:27;19.70;37.60
76967;DHT22;65904;52.278;20.972;2023-03-19T14:27:16;20.10;37.20
76967;DHT22;65904;52.278;20.972;2023-03-19T14:30:14;20.00;37.40
76967;DHT22;65904;52.278;20.972;2023-03-19T14:33:03;20.10;37.10
76967;DHT22;65904;52.278;20.972;2023-03-19T14:35:52;20.20;36.60
76967;DHT22;65904;52.278;20.972;2023-03-19T14:38:42;19.40;36.90
76967;DHT22;65904;52.278;20.972;2023-03-19T14:41:34;19.00;37.40
76967;DHT22;65904;52.278;20.972;2023-03-19T14:52:00;17.40;40.90
76967;DHT22;65904;52.278;20.972;2023-03-19T14:54:50;17.10;40.90
76967;DHT22;65904;52.278;20.972;2023-03-19T14:57:38;17.00;41.90
76967;DHT22;65904;52.278;20.972;2023-03-19T15:00:25;17.10;42.30
76967;DHT22;65904;52.278;20.972;2023-03-19T15:03:21;16.90;42.40
76967;DHT22;65904;52.278;20.972;2023-03-19T15:06:11;16.70;43.00
76967;DHT22;65904;52.278;20.972;2023-03-19T15:08:59;16.70;43.10
76967;DHT22;65904;52.278;20.972;2023-03-19T15:15:22;16.50;42.80
76967;DHT22;65904;52.278;20.972;2023-03-19T15:18:10;16.20;43.70
76967;DHT22;65904;52.278;20.972;2023-03-19T15:21:01;16.10;43.90
76967;DHT22;65904;52.278;20.972;2023-03-19T15:23:48;15.90;44.10
76967;DHT22;65904;52.278;20.972;2023-03-19T15:26:35;15.70;44.00
76967;DHT22;65904;52.278;20.972;2023-03-19T15:29:29;15.60;45.10
76967;DHT22;65904;52.278;20.972;2023-03-19T15:32:33;15.60;45.70
76967;DHT22;65904;52.278;20.972;2023-03-19T15:35:21;15.40;45.60
76967;DHT22;65904;52.278;20.972;2023-03-19T15:38:13;15.30;46.00
76967;DHT22;65904;52.278;20.972;2023-03-19T15:41:02;15.20;46.00
76967;DHT22;65904;52.278;20.972;2023-03-19T15:43:49;15.10;46.40
76967;DHT22;65904;52.278;20.972;2023-03-19T15:46:36;15.00;46.80
76967;DHT22;65904;52.278;20.972;2023-03-19T15:49:25;14.80;47.60
76967;DHT22;65904;52.278;20.972;2023-03-19T15:52:15;14.80;48.40
76967;DHT22;65904;52.278;20.972;2023-03-19T15:55:05;14.80;47.20
76967;DHT22;65904;52.278;20.972;2023-03-19T15:57:53;14.70;47.50
76967;DHT22;65904;52.278;20.972;2023-03-19T16:00:40;14.60;48.00
76967;DHT22;65904;52.278;20.972;2023-03-19T16:03:30;14.50;48.30
76967;DHT22;65904;52.278;20.972;2023-03-19T16:06:21;14.50;48.60
76967;DHT22;65904;52.278;20.972;2023-03-19T16:09:21;14.40;48.80
76967;DHT22;65904;52.278;20.972;2023-03-19T16:12:36;14.30;49.00
76967;DHT22;65904;52.278;20.972;2023-03-19T16:15:28;14.30;49.20
76967;DHT22;65904;52.278;20.972;2023-03-19T16:18:24;14.20;49.50
76967;DHT22;65904;52.278;20.972;2023-03-19T16:21:14;14.10;50.10
76967;DHT22;65904;52.278;20.972;2023-03-19T16:24:03;14.00;50.40
76967;DHT22;65904;52.278;20.972;2023-03-19T16:26:50;14.00;51.70
76967;DHT22;65904;52.278;20.972;2023-03-19T16:29:39;13.90;51.30
76967;DHT22;65904;52.278;20.972;2023-03-19T16:32:27;13.80;53.20
76967;DHT22;65904;52.278;20.972;2023-03-19T16:35:15;13.70;52.50
76967;DHT22;65904;52.278;20.972;2023-03-19T16:38:12;13.60;52.90
76967;DHT22;65904;52.278;20.972;2023-03-19T16:41:23;13.50;53.60
76967;DHT22;65904;52.278;20.972;2023-03-19T16:44:15;13.30;53.90
76967;DHT22;65904;52.278;20.972;2023-03-19T16:47:06;13.10;55.10
76967;DHT22;65904;52.278;20.972;2023-03-19T16:49:53;13.00;57.90
76967;DHT22;65904;52.278;20.972;2023-03-19T16:52:40;12.90;57.50
76967;DHT22;65904;52.278;20.972;2023-03-19T16:55:29;12.70;58.00
76967;DHT22;65904;52.278;20.972;2023-03-19T16:58:18;12.60;59.20
76967;DHT22;65904;52.278;20.972;2023-03-19T17:01:14;12.60;59.70
76967;DHT22;65904;52.278;20.972;2023-03-19T17:04:07;12.50;60.80
76967;DHT22;65904;52.278;20.972;2023-03-19T17:06:55;12.40;61.50
76967;DHT22;65904;52.278;20.972;2023-03-19T17:09:40;12.30;64.30
76967;DHT22;65904;52.278;20.972;2023-03-19T17:12:27;12.20;64.80
76967;DHT22;65904;52.278;20.972;2023-03-19T17:15:18;12.20;65.20
76967;DHT22;65904;52.278;20.972;2023-03-19T17:18:13;12.10;66.90
76967;DHT22;65904;52.278;20.972;2023-03-19T17:21:05;12.00;67.90
76967;DHT22;65904;52.278;20.972;2023-03-19T17:23:53;11.80;69.00
76967;DHT22;65904;52.278;20.972;2023-03-19T17:26:39;11.70;69.30
76967;DHT22;65904;52.278;20.972;2023-03-19T17:29:25;11.70;70.90
76967;DHT22;65904;52.278;20.972;2023-03-19T17:32:16;11.70;71.60
76967;DHT22;65904;52.278;20.972;2023-03-19T17:35:05;11.60;72.90
76967;DHT22;65904;52.278;20.972;2023-03-19T17:37:56;11.40;74.90
76967;DHT22;65904;52.278;20.972;2023-03-19T17:40:43;11.30;75.80
76967;DHT22;65904;52.278;20.972;2023-03-19T17:43:29;11.20;76.60
76967;DHT22;65904;52.278;20.972;2023-03-19T17:46:18;11.10;77.20
76967;DHT22;65904;52.278;20.972;2023-03-19T17:49:05;11.00;77.60
76967;DHT22;65904;52.278;20.972;2023-03-19T17:51:52;10.90;77.20
76967;DHT22;65904;52.278;20.972;2023-03-19T17:54:40;10.90;77.80
76967;DHT22;65904;52.278;20.972;2023-03-19T17:57:26;10.90;78.10
76967;DHT22;65904;52.278;20.972;2023-03-19T18:00:13;10.90;78.60
76967;DHT22;65904;52.278;20.972;2023-03-19T18:02:59;11.00;78.90
76967;DHT22;65904;52.278;20.972;2023-03-19T18:05:45;11.00;79.00
76967;DHT22;65904;52.278;20.972;2023-03-19T18:08:33;11.00;78.60